sensor_id;sensor_type;location;lat;lon;timestamp;temperature;humidity
33149;DHT22;19506;51.040;3.856;2023-06-22T09:51:15;23.00;99.90
33149;DHT22;19506;51.040;3.856;2023-06-22T09:53:40;23.10;99.90
33149;DHT22;19506;51.040;3.856;2023-06-22T09:56:06;23.30;99.90
33149;DHT22;19506;51.040;3.856;2023-06-22T09:58:32;23.50;99.90
33149;DHT22;19506;51.040;3.856;2023-06-22T10:00:58;23.50;99.90
33149;DHT22;19506;51.040;3.856;2023-06-22T10:03:23;23.50;99.90
33149;DHT22;19506;51.040;3.856;2023-06-22T10:05:49;23.70;99.90
33149;DHT22;19506;51.040;3.856;2023-06-22T10:08:15;23.70;99.90
33149;DHT22;19506;51.040;3.856;2023-06-22T10:10:40;23.50;99.90
33149;DHT22;19506;51.040;3.856;2023-06-22T10:13:10;23.60;99.90
33149;DHT22;19506;51.040;3.856;2023-06-22T10:15:37;23.70;99.90
33149;DHT22;19506;51.040;3.856;2023-06-22T10:18:02;23.60;99.90
33149;DHT22;19506;51.040;3.856;2023-06-22T10:20:28;23.90;99.90
33149;DHT22;19506;51.040;3.856;2023-06-22T10:22:54;23.60;99.90
33149;DHT22;19506;51.040;3.856;2023-06-22T10:25:21;23.60;99.90
33149;DHT22;19506;51.040;3.856;2023-06-22T10:27:46;23.70;99.90
33149;DHT22;19506;51.040;3.856;2023-06-22T10:30:13;23.80;99.90
33149;DHT22;19506;51.040;3.856;2023-06-22T10:32:40;23.80;99.90
33149;DHT22;19506;51.040;3.856;2023-06-22T10:35:06;24.10;99.90
33149;DHT22;19506;51.040;3.856;2023-06-22T10:37:32;24.10;99.90
33149;DHT22;19506;51.040;3.856;2023-06-22T10:39:57;24.30;99.90
33149;DHT22;19506;51.040;3.856;2023-06-22T10:42:23;24.40;99.90
33149;DHT22;19506;51.040;3.856;2023-06-22T10:44:49;24.50;99.90
33149;DHT22;19506;51.040;3.856;2023-06-22T10:47:15;24.60;99.90
33149;DHT22;19506;51.040;3.856;2023-06-22T10:49:41;24.60;99.90
33149;DHT22;19506;51.040;3.856;2023-06-22T10:52:08;24.70;99.90
33149;DHT22;19506;51.040;3.856;2023-06-22T10:54:37;24.70;99.90
33149;DHT22;19506;51.040;3.856;2023-06-22T10:57:03;24.70;99.90
33149;DHT22;19506;51.040;3.856;2023-06-22T10:59:29;24.60;99.90
33149;DHT22;19506;51.040;3.856;2023-06-22T11:01:58;24.60;99.90
33149;DHT22;19506;51.040;3.856;2023-06-22T11:04:24;24.50;99.90
33149;DHT22;19506;51.040;3.856;2023-06-22T11:06:50;24.40;99.90
33149;DHT22;19506;51.040;3.856;2023-06-22T11:09:16;24.40;99.90
33149;DHT22;19506;51.040;3.856;2023-06-22T11:11:46;24.40;99.90
33149;DHT22;19506;51.040;3.856;2023-06-22T11:14:12;24.30;99.90
33149;DHT22;19506;51.040;3.856;2023-06-22T11:16:37;24.40;99.90
33149;DHT22;19506;51.040;3.856;2023-06-22T11:19:05;24.50;99.90
33149;DHT22;19506;51.040;3.856;2023-06-22T11:21:31;24.40;99.90
33149;DHT22;19506;51.040;3.856;2023-06-22T11:23:58;24.40;99.90
33149;DHT22;19506;51.040;3.856;2023-06-22T11:26:24;24.50;99.90
33149;DHT22;19506;51.040;3.856;2023-06-22T11:28:52;24.50;99.90
33149;DHT22;19506;51.040;3.856;2023-06-22T11:31:18;24.50;99.90
33149;DHT22;19506;51.040;3.856;2023-06-22T11:33:44;24.50;99.90
33149;DHT22;19506;51.040;3.856;2023-06-22T11:36:11;24.60;99.90
33149;DHT22;19506;51.040;3.856;2023-06-22T11:38:37;24.60;99.90
33149;DHT22;19506;51.040;3.856;2023-06-22T11:41:05;24.60;99.90
33149;DHT22;19506;51.040;3.856;2023-06-22T11:43:31;24.60;99.90
33149;DHT22;19506;51.040;3.856;2023-06-22T11:45:57;24.80;99.90
33149;DHT22;19506;51.040;3.856;2023-06-22T11:48:24;24.70;99.90
33149;DHT22;19506;51.040;3.856;2023-06-22T11:50:50;24.90;99.90
33149;DHT22;19506;51.040;3.856;2023-06-22T11:53:16;25.00;99.90
33149;DHT22;19506;51.040;3.856;2023-06-22T11:55:43;24.90;99.90
33149;DHT22;19506;51.040;3.856;2023-06-22T11:58:11;24.90;99.90
33149;DHT22;19506;51.040;3.856;2023-06-22T12:00:37;24.90;99.90
33149;DHT22;19506;51.040;3.856;2023-06-22T12:03:03;24.90;99.90
33149;DHT22;19506;51.040;3.856;2023-06-22T12:05:29;24.80;99.90
33149;DHT22;19506;51.040;3.856;2023-06-22T12:07:54;25.00;99.90
33149;DHT22;19506;51.040;3.856;2023-06-22T12:10:21;25.00;99.90
33149;DHT22;19506;51.040;3.856;2023-06-22T12:12:47;24.90;99.90
33149;DHT22;19506;51.040;3.856;2023-06-22T12:15:13;24.90;99.90
33149;DHT22;19506;51.040;3.856;2023-06-22T12:17:39;24.90;99.90
33149;DHT22;19506;51.040;3.856;2023-06-22T12:20:06;25.00;99.90
33149;DHT22;19506;51.040;3.856;2023-06-22T12:22:35;25.00;99.90
33149;DHT22;19506;51.040;3.856;2023-06-22T12:25:03;25.00;99.90
33149;DHT22;19506;51.040;3.856;2023-06-22T12:27:29;25.10;99.90
33149;DHT22;19506;51.040;3.856;2023-06-22T12:29:56;25.00;99.90
33149;DHT22;19506;51.040;3.856;2023-06-22T12:32:22;24.90;99.90
33149;DHT22;19506;51.040;3.856;2023-06-22T12:34:47;24.90;99.90
33149;DHT22;19506;51.040;3.856;2023-06-22T12:37:13;25.00;99.90
33149;DHT22;19506;51.040;3.856;2023-06-22T12:39:41;25.00;99.90
33149;DHT22;19506;51.040;3.856;2023-06-22T12:42:07;25.00;99.90
33149;DHT22;19506;51.040;3.856;2023-06-22T12:44:35;25.00;99.90
33149;DHT22;19506;51.040;3.856;2023-06-22T12:47:00;25.10;99.90
33149;DHT22;19506;51.040;3.856;2023-06-22T12:49:26;25.10;99.90
33149;DHT22;19506;51.040;3.856;2023-06-22T12:51:52;25.10;99.90
33149;DHT22;19506;51.040;3.856;2023-06-22T12:54:17;25.10;99.90
33149;DHT22;19506;51.040;3.856;2023-06-22T12:56:43;25.00;99.90
33149;DHT22;19506;51.040;3.856;2023-06-22T12:59:12;25.00;99.90
33149;DHT22;19506;51.040;3.856;2023-06-22T13:01:38;25.00;99.90
33149;DHT22;19506;51.040;3.856;2023-06-22T13:04:04;25.00;99.90
33149;DHT22;19506;51.040;3.856;2023-06-22T13:06:30;25.00;99.90
33149;DHT22;19506;51.040;3.856;2023-06-22T13:08:55;25.00;99.90
33149;DHT22;19506;51.040;3.856;2023-06-22T13:11:21;24.90;99.90
33149;DHT22;19506;51.040;3.856;2023-06-22T13:13:46;24.90;99.90
33149;DHT22;19506;51.040;3.856;2023-06-22T13:16:12;24.90;99.90
33149;DHT22;19506;51.040;3.856;2023-06-22T13:18:38;25.00;99.90
33149;DHT22;19506;51.040;3.856;2023-06-22T13:21:04;24.90;99.90
33149;DHT22;19506;51.040;3.856;2023-06-22T13:23:30;25.00;99.90
33149;DHT22;19506;51.040;3.856;2023-06-22T13:25:57;24.90;99.90
33149;DHT22;19506;51.040;3.856;2023-06-22T13:28:23;24.90;99.90
33149;DHT22;19506;51.040;3.856;2023-06-22T13:30:49;24.80;99.90
33149;DHT22;19506;51.040;3.856;2023-06-22T13:33:15;24.90;99.90
33149;DHT22;19506;51.040;3.856;2023-06-22T13:35:40;24.80;99.90
33149;DHT22;19506;51.040;3.856;2023-06-22T13:38:09;24.70;99.90
33149;DHT22;19506;51.040;3.856;2023-06-22T13:40:36;24.80;99.90
33149;DHT22;19506;51.040;3.856;2023-06-22T13:43:04;24.70;99.90
33149;DHT22;19506;51.040;3.856;2023-06-22T13:45:29;24.70;99.90
33149;DHT22;19506;51.040;3.856;2023-06-22T13:47:55;24.70;99.90
33149;DHT22;19506;51.040;3.856;2023-06-22T13:50:21;24.70;99.90
33149;DHT22;19506;51.040;3.856;2023-06-22T13:52:46;24.70;99.90
33149;DHT22;19506;51.040;3.856;2023-06-22T13:55:12;24.70;99.90
33149;DHT22;19506;51.040;3.856;2023-06-22T13:57:40;24.70;99.90
33149;DHT22;19506;51.040;3.856;2023-06-22T14:00:06;24.60;99.90
33149;DHT22;19506;51.040;3.856;2023-06-22T14:02:32;24.70;99.90
33149;DHT22;19506;51.040;3.856;2023-06-22T14:04:57;24.60;99.90
33149;DHT22;19506;51.040;3.856;2023-06-22T14:07:23;24.60;99.90
33149;DHT22;19506;51.040;3.856;2023-06-22T14:09:50;24.50;99.90
33149;DHT22;19506;51.040;3.856;2023-06-22T14:12:16;24.60;99.90
33149;DHT22;19506;51.040;3.856;2023-06-22T14:14:43;24.70;99.90
33149;DHT22;19506;51.040;3.856;2023-06-22T14:17:09;24.70;99.90
33149;DHT22;19506;51.040;3.856;2023-06-22T14:19:35;24.80;99.90
33149;DHT22;19506;51.040;3.856;2023-06-22T14:22:01;24.90;99.90
33149;DHT22;19506;51.040;3.856;2023-06-22T14:24:27;24.90;99.90
33149;DHT22;19506;51.040;3.856;2023-06-22T14:26:54;24.80;99.90
33149;DHT22;19506;51.040;3.856;2023-06-22T14:29:19;24.80;99.90
33149;DHT22;19506;51.040;3.856;2023-06-22T14:31:46;24.70;99.90
33149;DHT22;19506;51.040;3.856;2023-06-22T14:34:12;24.90;99.90
33149;DHT22;19506;51.040;3.856;2023-06-22T14:36:38;24.90;99.90
33149;DHT22;19506;51.040;3.856;2023-06-22T14:39:03;25.00;99.90
33149;DHT22;19506;51.040;3.856;2023-06-22T14:41:30;25.10;99.90
33149;DHT22;19506;51.040;3.856;2023-06-22T14:43:56;25.10;99.90
33149;DHT22;19506;51.040;3.856;2023-06-22T14:46:21;25.10;99.90
33149;DHT22;19506;51.040;3.856;2023-06-22T14:48:47;25.00;99.90
33149;DHT22;19506;51.040;3.856;2023-06-22T14:51:13;24.90;99.90
33149;DHT22;19506;51.040;3.856;2023-06-22T14:53:39;24.90;99.90
33149;DHT22;19506;51.040;3.856;2023-06-22T14:56:05;24.90;99.90
33149;DHT22;19506;51.040;3.856;2023-06-22T14:58:32;24.90;99.90
33149;DHT22;19506;51.040;3.856;2023-06-22T15:01:02;25.00;99.90
33149;DHT22;19506;51.040;3.856;2023-06-22T15:03:29;25.00;99.90
33149;DHT22;19506;51.040;3.856;2023-06-22T15:05:56;24.90;99.90
33149;DHT22;19506;51.040;3.856;2023-06-22T15:08:22;24.90;99.90
33149;DHT22;19506;51.040;3.856;2023-06-22T15:10:47;24.90;99.90
33149;DHT22;19506;51.040;3.856;2023-06-22T15:13:13;24.90;99.90
33149;DHT22;19506;51.040;3.856;2023-06-22T15:15:39;24.90;99.90
33149;DHT22;19506;51.040;3.856;2023-06-22T15:18:05;24.80;99.90
33149;DHT22;19506;51.040;3.856;2023-06-22T15:20:30;24.90;99.90
33149;DHT22;19506;51.040;3.856;2023-06-22T15:22:59;24.90;99.90
33149;DHT22;19506;51.040;3.856;2023-06-22T15:25:25;24.90;99.90
33149;DHT22;19506;51.040;3.856;2023-06-22T15:27:51;24.80;99.90
33149;DHT22;19506;51.040;3.856;2023-06-22T15:30:16;24.90;99.90
33149;DHT22;19506;51.040;3.856;2023-06-22T15:32:43;24.90;99.90
33149;DHT22;19506;51.040;3.856;2023-06-22T15:35:13;24.90;99.90
33149;DHT22;19506;51.040;3.856;2023-06-22T15:37:40;24.90;99.90
33149;DHT22;19506;51.040;3.856;2023-06-22T15:40:06;24.90;99.90
33149;DHT22;19506;51.040;3.856;2023-06-22T15:42:32;24.90;99.90
33149;DHT22;19506;51.040;3.856;2023-06-22T15:44:57;24.90;99.90
33149;DHT22;19506;51.040;3.856;2023-06-22T15:47:23;24.90;99.90
33149;DHT22;19506;51.040;3.856;2023-06-22T15:49:50;24.90;99.90
33149;DHT22;19506;51.040;3.856;2023-06-22T15:52:15;24.90;99.90
33149;DHT22;19506;51.040;3.856;2023-06-22T15:54:44;24.90;99.90
33149;DHT22;19506;51.040;3.856;2023-06-22T15:57:10;24.90;99.90
33149;DHT22;19506;51.040;3.856;2023-06-22T15:59:42;24.90;99.90
33149;DHT22;19506;51.040;3.856;2023-06-22T16:02:09;24.90;99.90
33149;DHT22;19506;51.040;3.856;2023-06-22T16:04:35;24.80;99.90
33149;DHT22;19506;51.040;3.856;2023-06-22T16:07:01;24.90;99.90
33149;DHT22;19506;51.040;3.856;2023-06-22T16:09:27;24.70;99.90
33149;DHT22;19506;51.040;3.856;2023-06-22T16:11:54;24.80;99.90
33149;DHT22;19506;51.040;3.856;2023-06-22T16:14:20;24.70;99.90
33149;DHT22;19506;51.040;3.856;2023-06-22T16:16:46;24.70;99.90
33149;DHT22;19506;51.040;3.856;2023-06-22T16:19:12;24.70;99.90
33149;DHT22;19506;51.040;3.856;2023-06-22T16:21:38;24.80;99.90
33149;DHT22;19506;51.040;3.856;2023-06-22T16:24:03;24.70;99.90
33149;DHT22;19506;51.040;3.856;2023-06-22T16:26:42;24.60;99.90
33149;DHT22;19506;51.040;3.856;2023-06-22T16:29:09;24.60;99.90
33149;DHT22;19506;51.040;3.856;2023-06-22T16:31:35;24.80;99.90
33149;DHT22;19506;51.040;3.856;2023-06-22T16:34:02;24.60;99.90
33149;DHT22;19506;51.040;3.856;2023-06-22T16:36:28;24.40;99.90
33149;DHT22;19506;51.040;3.856;2023-06-22T16:38:54;24.60;99.90
33149;DHT22;19506;51.040;3.856;2023-06-22T16:41:20;24.60;99.90
33149;DHT22;19506;51.040;3.856;2023-06-22T16:43:46;24.40;99.90
33149;DHT22;19506;51.040;3.856;2023-06-22T16:46:12;24.50;99.90
33149;DHT22;19506;51.040;3.856;2023-06-22T16:48:37;24.50;99.90
33149;DHT22;19506;51.040;3.856;2023-06-22T16:51:03;24.60;99.90
33149;DHT22;19506;51.040;3.856;2023-06-22T16:53:30;24.30;99.90
33149;DHT22;19506;51.040;3.856;2023-06-22T16:55:57;24.30;99.90
33149;DHT22;19506;51.040;3.856;2023-06-22T16:58:23;24.40;99.90
33149;DHT22;19506;51.040;3.856;2023-06-22T17:00:53;24.30;99.90
33149;DHT22;19506;51.040;3.856;2023-06-22T17:03:28;24.40;99.90
33149;DHT22;19506;51.040;3.856;2023-06-22T17:05:58;24.50;99.90
33149;DHT22;19506;51.040;3.856;2023-06-22T17:08:29;24.40;99.90
33149;DHT22;19506;51.040;3.856;2023-06-22T17:10:58;24.40;99.90
33149;DHT22;19506;51.040;3.856;2023-06-22T17:13:24;24.40;99.90
33149;DHT22;19506;51.040;3.856;2023-06-22T17:15:54;24.40;99.90
33149;DHT22;19506;51.040;3.856;2023-06-22T17:18:23;24.40;99.90
33149;DHT22;19506;51.040;3.856;2023-06-22T17:20:49;24.40;99.90
33149;DHT22;19506;51.040;3.856;2023-06-22T17:23:15;24.40;99.90
33149;DHT22;19506;51.040;3.856;2023-06-22T17:25:41;24.40;99.90
33149;DHT22;19506;51.040;3.856;2023-06-22T17:28:08;24.40;99.90
33149;DHT22;19506;51.040;3.856;2023-06-22T17:30:33;24.40;99.90
33149;DHT22;19506;51.040;3.856;2023-06-22T17:32:59;24.40;99.90
33149;DHT22;19506;51.040;3.856;2023-06-22T17:35:25;24.20;99.90
33149;DHT22;19506;51.040;3.856;2023-06-22T17:37:53;24.30;99.90
33149;DHT22;19506;51.040;3.856;2023-06-22T17:40:20;24.40;99.90
33149;DHT22;19506;51.040;3.856;2023-06-22T17:42:46;24.30;99.90
33149;DHT22;19506;51.040;3.856;2023-06-22T17:45:20;24.20;99.90
33149;DHT22;19506;51.040;3.856;2023-06-22T17:47:50;24.20;99.90
33149;DHT22;19506;51.040;3.856;2023-06-22T17:50:16;24.20;99.90
33149;DHT22;19506;51.040;3.856;2023-06-22T17:52:52;24.40;99.90
33149;DHT22;19506;51.040;3.856;2023-06-22T17:55:22;24.40;99.90
33149;DHT22;19506;51.040;3.856;2023-06-22T17:57:54;24.40;99.90
33149;DHT22;19506;51.040;3.856;2023-06-22T18:00:21;24.40;99.90
33149;DHT22;19506;51.040;3.856;2023-06-22T18:02:49;24.40;99.90
33149;DHT22;19506;51.040;3.856;2023-06-22T18:05:15;24.40;99.90
33149;DHT22;19506;51.040;3.856;2023-06-22T18:07:41;24.50;99.90
33149;DHT22;19506;51.040;3.856;2023-06-22T18:10:08;24.60;99.90
33149;DHT22;19506;51.040;3.856;2023-06-22T18:12:36;24.60;99.90
33149;DHT22;19506;51.040;3.856;2023-06-22T18:15:02;24.60;99.90
33149;DHT22;19506;51.040;3.856;2023-06-22T18:17:28;24.60;99.90
33149;DHT22;19506;51.040;3.856;2023-06-22T18:19:55;24.60;99.90
33149;DHT22;19506;51.040;3.856;2023-06-22T18:22:22;24.50;99.90
33149;DHT22;19506;51.040;3.856;2023-06-22T18:24:49;24.60;99.90
33149;DHT22;19506;51.040;3.856;2023-06-22T18:27:15;24.60;99.90
33149;DHT22;19506;51.040;3.856;2023-06-22T18:29:42;24.70;99.90
33149;DHT22;19506;51.040;3.856;2023-06-22T18:32:08;24.70;99.90
33149;DHT22;19506;51.040;3.856;2023-06-22T18:34:35;24.70;99.90
33149;DHT22;19506;51.040;3.856;2023-06-22T18:37:03;24.90;99.90
33149;DHT22;19506;51.040;3.856;2023-06-22T18:39:31;24.70;99.90
33149;DHT22;19506;51.040;3.856;2023-06-22T18:41:59;24.80;99.90
33149;DHT22;19506;51.040;3.856;2023-06-22T18:44:31;24.90;99.90
33149;DHT22;19506;51.040;3.856;2023-06-22T18:47:01;24.90;99.90
33149;DHT22;19506;51.040;3.856;2023-06-22T18:49:47;24.90;99.90
33149;DHT22;19506;51.040;3.856;2023-06-22T18:52:23;24.80;99.90
33149;DHT22;19506;51.040;3.856;2023-06-22T18:54:49;24.80;99.90
33149;DHT22;19506;51.040;3.856;2023-06-22T18:59:54;24.70;99.90
33149;DHT22;19506;51.040;3.856;2023-06-22T19:10:30;24.80;99.90
33149;DHT22;19506;51.040;3.856;2023-06-22T19:15:42;24.90;99.90
33149;DHT22;19506;51.040;3.856;2023-06-22T19:18:16;24.70;99.90
33149;DHT22;19506;51.040;3.856;2023-06-22T19:20:42;24.70;99.90
33149;DHT22;19506;51.040;3.856;2023-06-22T19:23:31;24.70;99.90
33149;DHT22;19506;51.040;3.856;2023-06-22T19:25:58;24.80;99.90
33149;DHT22;19506;51.040;3.856;2023-06-22T19:28:26;24.80;99.90
33149;DHT22;19506;51.040;3.856;2023-06-22T19:30:57;24.90;99.90
33149;DHT22;19506;51.040;3.856;2023-06-22T19:33:24;24.90;99.90
33149;DHT22;19506;51.040;3.856;2023-06-22T19:35:58;24.90;99.90
33149;DHT22;19506;51.040;3.856;2023-06-22T19:38:25;24.90;99.90
33149;DHT22;19506;51.040;3.856;2023-06-22T19:40:52;24.80;99.90
33149;DHT22;19506;51.040;3.856;2023-06-22T19:43:18;24.80;99.90
33149;DHT22;19506;51.040;3.856;2023-06-22T19:45:44;24.90;99.90
33149;DHT22;19506;51.040;3.856;2023-06-22T19:48:12;24.70;99.90
33149;DHT22;19506;51.040;3.856;2023-06-22T19:50:38;24.60;99.90
33149;DHT22;19506;51.040;3.856;2023-06-22T19:53:12;24.60;99.90
33149;DHT22;19506;51.040;3.856;2023-06-22T19:55:43;24.60;99.90
33149;DHT22;19506;51.040;3.856;2023-06-22T19:58:13;24.60;99.90
33149;DHT22;19506;51.040;3.856;2023-06-22T20:00:40;24.60;99.90
33149;DHT22;19506;51.040;3.856;2023-06-22T20:03:15;24.50;99.90
33149;DHT22;19506;51.040;3.856;2023-06-22T20:05:42;24.60;99.90
33149;DHT22;19506;51.040;3.856;2023-06-22T20:08:13;24.70;99.90
33149;DHT22;19506;51.040;3.856;2023-06-22T20:10:39;24.70;99.90
33149;DHT22;19506;51.040;3.856;2023-06-22T20:13:13;24.70;99.90
33149;DHT22;19506;51.040;3.856;2023-06-22T20:15:40;24.70;99.90
33149;DHT22;19506;51.040;3.856;2023-06-22T20:18:06;24.60;99.90
33149;DHT22;19506;51.040;3.856;2023-06-22T20:20:34;24.60;99.90
33149;DHT22;19506;51.040;3.856;2023-06-22T20:23:05;24.60;99.90
33149;DHT22;19506;51.040;3.856;2023-06-22T20:25:34;24.60;99.90
33149;DHT22;19506;51.040;3.856;2023-06-22T20:28:16;24.40;99.90
33149;DHT22;19506;51.040;3.856;2023-06-22T20:31:01;24.00;99.90
33149;DHT22;19506;51.040;3.856;2023-06-22T20:33:27;23.80;99.90
33149;DHT22;19506;51.040;3.856;2023-06-22T20:35:53;23.90;99.90
33149;DHT22;19506;51.040;3.856;2023-06-22T20:38:19;23.80;99.90
33149;DHT22;19506;51.040;3.856;2023-06-22T20:40:49;23.70;99.90
33149;DHT22;19506;51.040;3.856;2023-06-22T20:43:15;23.70;99.90
33149;DHT22;19506;51.040;3.856;2023-06-22T20:45:40;23.70;99.90
33149;DHT22;19506;51.040;3.856;2023-06-22T20:48:06;23.50;99.90
33149;DHT22;19506;51.040;3.856;2023-06-22T20:50:34;23.60;99.90
33149;DHT22;19506;51.040;3.856;2023-06-22T20:53:01;23.80;99.90
33149;DHT22;19506;51.040;3.856;2023-06-22T20:55:28;23.80;99.90
33149;DHT22;19506;51.040;3.856;2023-06-22T20:57:54;23.70;99.90
33149;DHT22;19506;51.040;3.856;2023-06-22T21:00:23;23.80;99.90
33149;DHT22;19506;51.040;3.856;2023-06-22T21:02:50;23.70;99.90
33149;DHT22;19506;51.040;3.856;2023-06-22T21:05:22;23.50;99.90
33149;DHT22;19506;51.040;3.856;2023-06-22T21:07:48;23.50;99.90
33149;DHT22;19506;51.040;3.856;2023-06-22T21:10:15;23.50;99.90
33149;DHT22;19506;51.040;3.856;2023-06-22T21:12:41;23.50;99.90
33149;DHT22;19506;51.040;3.856;2023-06-22T21:15:07;23.40;99.90
33149;DHT22;19506;51.040;3.856;2023-06-22T21:17:33;23.20;99.90
33149;DHT22;19506;51.040;3.856;2023-06-22T21:19:59;23.00;99.90
33149;DHT22;19506;51.040;3.856;2023-06-22T21:22:26;22.90;99.90
33149;DHT22;19506;51.040;3.856;2023-06-22T21:25:09;22.50;99.90
33149;DHT22;19506;51.040;3.856;2023-06-22T21:27:36;23.00;99.90
33149;DHT22;19506;51.040;3.856;2023-06-22T21:30:03;23.10;99.90
33149;DHT22;19506;51.040;3.856;2023-06-22T21:32:30;23.00;99.90
33149;DHT22;19506;51.040;3.856;2023-06-22T21:34:56;22.90;99.90
33149;DHT22;19506;51.040;3.856;2023-06-22T21:37:22;22.80;99.90
33149;DHT22;19506;51.040;3.856;2023-06-22T21:39:49;22.90;99.90
33149;DHT22;19506;51.040;3.856;2023-06-22T21:42:15;22.90;99.90
33149;DHT22;19506;51.040;3.856;2023-06-22T21:44:41;22.80;99.90
33149;DHT22;19506;51.040;3.856;2023-06-22T21:47:08;22.80;99.90
33149;DHT22;19506;51.040;3.856;2023-06-22T21:49:33;22.80;99.90
33149;DHT22;19506;51.040;3.856;2023-06-22T21:51:59;22.90;99.90
33149;DHT22;19506;51.040;3.856;2023-06-22T21:54:24;22.90;99.90
